Time;durP1;ratioP1;P1;durP2;ratioP2;P2;SDS_P1;SDS_P2;PMS_P1;PMS_P2;Temp;Humidity;BMP_temperature;BMP_pressure;BME280_temperature;BME280_humidity;BME280_pressure;Samples;Min_cycle;Max_cycle;Signal;HPM_P1;HPM_P2
2023/03/12 00:00:45;;;;;;;8.30;5.07;;;1.10;99.90;;;;;;5009309;28;20660;-63
2023/03/12 00:03:10;;;;;;;7.30;4.53;;;0.90;99.90;;;;;;5006386;28;20187;-64
2023/03/12 00:05:38;;;;;;;8.23;5.43;;;0.70;99.90;;;;;;5009663;28;20738;-64
2023/03/12 00:08:04;;;;;;;5.85;5.03;;;1.10;99.90;;;;;;5009599;28;20183;-63
2023/03/12 00:10:30;;;;;;;5.97;4.70;;;1.30;99.90;;;;;;5009182;28;20195;-63
2023/03/12 00:12:56;;;;;;;5.40;4.60;;;1.40;99.90;;;;;;5009010;28;20175;-64
2023/03/12 00:15:22;;;;;;;12.25;4.72;;;1.30;99.90;;;;;;5007796;28;20314;-64
2023/03/12 00:17:47;;;;;;;6.17;4.50;;;1.00;99.90;;;;;;5007021;28;20301;-63
2023/03/12 00:20:13;;;;;;;5.73;4.30;;;1.10;99.90;;;;;;5008486;28;20205;-63
2023/03/12 00:22:39;;;;;;;6.85;4.93;;;1.00;99.90;;;;;;5010176;28;20229;-63
2023/03/12 00:25:09;;;;;;;7.20;4.10;;;1.20;99.90;;;;;;5006648;28;20611;-64
2023/03/12 00:27:35;;;;;;;5.70;4.50;;;1.10;99.90;;;;;;5007905;28;20496;-63
2023/03/12 00:30:02;;;;;;;5.20;4.30;;;1.00;99.90;;;;;;5008739;28;20207;-63
2023/03/12 00:32:28;;;;;;;6.85;4.53;;;1.00;99.90;;;;;;5007663;28;20245;-63
2023/03/12 00:34:54;;;;;;;5.43;3.70;;;1.10;99.90;;;;;;5006200;28;20790;-64
2023/03/12 00:37:21;;;;;;;6.25;3.45;;;0.50;99.90;;;;;;5008302;28;20183;-65
2023/03/12 00:39:47;;;;;;;7.43;4.40;;;1.30;99.90;;;;;;5007645;28;20214;-63
2023/03/12 00:42:12;;;;;;;5.47;4.10;;;1.10;99.90;;;;;;5009065;28;20187;-63
2023/03/12 00:44:38;;;;;;;5.30;3.93;;;1.30;99.90;;;;;;5009300;28;20214;-63
2023/03/12 00:47:04;;;;;;;5.57;4.07;;;1.00;99.90;;;;;;5009992;28;20197;-63
2023/03/12 00:49:30;;;;;;;5.90;4.17;;;1.20;99.90;;;;;;5007997;28;20223;-63
2023/03/12 00:51:55;;;;;;;4.70;4.17;;;0.70;99.90;;;;;;5008445;28;21015;-63
2023/03/12 00:54:21;;;;;;;5.77;4.33;;;0.80;99.90;;;;;;5002552;28;20206;-63
2023/03/12 00:56:48;;;;;;;5.00;3.70;;;1.10;99.90;;;;;;5008426;28;20252;-63
2023/03/12 00:59:14;;;;;;;6.78;4.28;;;0.40;99.90;;;;;;5008609;28;20676;-63
2023/03/12 01:01:41;;;;;;;7.82;4.30;;;1.40;99.90;;;;;;5007685;28;20305;-63
2023/03/12 01:04:06;;;;;;;5.90;4.10;;;1.00;99.90;;;;;;5008158;28;20657;-63
2023/03/12 01:06:32;;;;;;;5.30;4.10;;;0.70;99.90;;;;;;5007086;28;20195;-63
2023/03/12 01:08:58;;;;;;;6.83;4.67;;;0.90;99.90;;;;;;5006677;28;20696;-63
2023/03/12 01:11:23;;;;;;;4.22;3.60;;;0.80;99.90;;;;;;5005629;28;20202;-63
2023/03/12 01:13:49;;;;;;;4.30;3.60;;;1.00;99.90;;;;;;5005514;28;20222;-63
2023/03/12 01:16:14;;;;;;;5.90;3.70;;;0.30;99.90;;;;;;5008733;28;20225;-63
2023/03/12 01:18:40;;;;;;;4.53;3.50;;;0.20;99.90;;;;;;5011137;28;20293;-64
2023/03/12 01:21:06;;;;;;;4.63;3.53;;;1.10;99.90;;;;;;5011158;28;20186;-63
2023/03/12 01:23:32;;;;;;;9.73;3.80;;;0.70;99.90;;;;;;5010429;28;20195;-63
2023/03/12 01:25:58;;;;;;;4.47;3.40;;;1.10;99.90;;;;;;5009090;28;20453;-63
2023/03/12 01:28:24;;;;;;;4.32;3.60;;;1.00;99.90;;;;;;5012699;28;20444;-63
2023/03/12 01:30:50;;;;;;;5.10;3.97;;;1.20;99.90;;;;;;5010219;28;20257;-64
2023/03/12 01:33:17;;;;;;;11.38;3.42;;;1.10;99.90;;;;;;5008790;28;20683;-64
2023/03/12 01:35:43;;;;;;;8.10;4.20;;;1.20;99.90;;;;;;5011083;28;20250;-64
2023/03/12 01:38:14;;;;;;;5.75;4.10;;;1.10;99.90;;;;;;5011404;28;20187;-65
2023/03/12 01:40:41;;;;;;;9.10;3.67;;;1.30;99.90;;;;;;5008881;28;20254;-63
2023/03/12 01:43:29;;;;;;;6.68;4.03;;;1.40;99.90;;;;;;5010138;28;20179;-63
2023/03/12 01:46:06;;;;;;;4.90;4.00;;;1.30;99.90;;;;;;5010474;28;20766;-63
2023/03/12 01:48:53;;;;;;;7.93;5.20;;;1.20;99.90;;;;;;5009944;28;20207;-63
2023/03/12 01:51:20;;;;;;;4.70;3.70;;;1.10;99.90;;;;;;5009787;28;20179;-63
2023/03/12 01:53:49;;;;;;;5.43;4.10;;;1.20;99.90;;;;;;5009944;28;20233;-63
2023/03/12 01:56:17;;;;;;;4.50;4.10;;;0.90;99.90;;;;;;5009491;28;20211;-63
2023/03/12 01:58:49;;;;;;;7.00;4.18;;;1.50;99.90;;;;;;5009794;28;20222;-63
2023/03/12 02:01:17;;;;;;;8.65;4.57;;;1.30;99.90;;;;;;5010339;28;20430;-63
2023/03/12 02:03:50;;;;;;;4.65;4.25;;;1.00;99.90;;;;;;5009495;28;20221;-63
2023/03/12 02:06:21;;;;;;;4.28;3.45;;;1.50;99.90;;;;;;5006071;28;20189;-63
2023/03/12 02:08:47;;;;;;;4.95;4.05;;;1.50;99.90;;;;;;5009034;28;20604;-63
2023/03/12 02:11:13;;;;;;;6.05;5.00;;;1.50;99.90;;;;;;5008108;28;20179;-63
2023/03/12 02:13:39;;;;;;;5.83;4.17;;;1.20;99.90;;;;;;5008661;28;21614;-63
2023/03/12 02:16:05;;;;;;;6.60;4.20;;;1.50;99.90;;;;;;5009051;28;20219;-63
2023/03/12 02:18:33;;;;;;;6.50;4.63;;;1.70;99.90;;;;;;5006416;28;20808;-63
2023/03/12 02:21:22;;;;;;;7.50;4.40;;;1.60;99.90;;;;;;5009252;28;20205;-64
2023/03/12 02:24:12;;;;;;;6.20;4.90;;;1.70;99.90;;;;;;5011234;28;20187;-64
2023/03/12 02:26:39;;;;;;;8.27;4.55;;;1.50;99.90;;;;;;5008814;28;20241;-64
2023/03/12 02:29:08;;;;;;;5.00;4.25;;;1.20;99.90;;;;;;5014141;28;20290;-63
2023/03/12 02:31:45;;;;;;;10.05;4.60;;;2.30;99.90;;;;;;5010612;28;20189;-63
2023/03/12 02:34:11;;;;;;;6.03;4.10;;;1.90;99.90;;;;;;5008754;28;20207;-63
2023/03/12 02:36:37;;;;;;;4.23;3.83;;;1.80;99.90;;;;;;5009991;28;20194;-63
2023/03/12 02:39:02;;;;;;;7.27;5.03;;;2.20;99.90;;;;;;5010253;28;20203;-63
2023/03/12 02:41:44;;;;;;;7.63;4.37;;;1.40;99.90;;;;;;5012006;28;20207;-63
2023/03/12 02:44:16;;;;;;;4.57;4.00;;;1.80;99.90;;;;;;5010957;28;20438;-64
2023/03/12 02:46:45;;;;;;;4.60;4.00;;;1.80;99.90;;;;;;5011108;28;20604;-64
2023/03/12 02:49:12;;;;;;;8.93;4.60;;;1.40;99.90;;;;;;5009564;28;20211;-64
2023/03/12 02:51:38;;;;;;;4.90;4.40;;;1.20;99.90;;;;;;5011302;28;20202;-63
2023/03/12 02:54:05;;;;;;;5.15;3.67;;;1.80;99.90;;;;;;5007436;28;20316;-63
2023/03/12 02:56:31;;;;;;;5.15;4.15;;;2.10;99.90;;;;;;5008756;28;20195;-64
2023/03/12 02:58:56;;;;;;;6.10;4.50;;;2.40;99.90;;;;;;5010973;28;20732;-64
2023/03/12 03:01:22;;;;;;;6.47;4.40;;;2.20;99.90;;;;;;5009469;28;20449;-63
2023/03/12 03:03:48;;;;;;;6.20;4.20;;;1.80;99.90;;;;;;5007580;28;20185;-63
2023/03/12 03:06:14;;;;;;;6.20;4.10;;;1.90;99.90;;;;;;5009906;28;20288;-63
2023/03/12 03:08:40;;;;;;;5.60;3.97;;;2.00;99.90;;;;;;5010162;28;20439;-64
2023/03/12 03:11:06;;;;;;;8.83;4.27;;;1.70;99.90;;;;;;5009898;28;20830;-63
2023/03/12 03:13:33;;;;;;;6.15;4.50;;;2.30;99.90;;;;;;5009761;28;20529;-63
2023/03/12 03:16:00;;;;;;;7.13;4.80;;;2.20;99.90;;;;;;5009225;28;20191;-64
2023/03/12 03:18:27;;;;;;;6.32;4.85;;;2.10;99.90;;;;;;5007558;28;20183;-64
2023/03/12 03:21:01;;;;;;;8.50;4.95;;;1.80;99.90;;;;;;5010934;28;20219;-64
2023/03/12 03:23:27;;;;;;;7.78;4.07;;;2.30;99.90;;;;;;5010293;28;20266;-63
2023/03/12 03:25:53;;;;;;;4.83;4.13;;;2.70;99.90;;;;;;5006361;28;20273;-63
2023/03/12 03:28:23;;;;;;;6.90;4.70;;;1.60;99.90;;;;;;5009669;28;20190;-63
2023/03/12 03:30:52;;;;;;;6.15;4.30;;;1.90;99.90;;;;;;5008701;28;20469;-63
2023/03/12 03:33:18;;;;;;;7.78;4.43;;;2.30;99.90;;;;;;5008881;28;20242;-64
2023/03/12 03:35:44;;;;;;;5.18;4.63;;;2.30;99.90;;;;;;5008489;28;20220;-63
2023/03/12 03:38:09;;;;;;;10.13;4.77;;;2.40;99.90;;;;;;5009423;28;20188;-63
2023/03/12 03:40:35;;;;;;;5.60;4.60;;;2.30;99.90;;;;;;5007266;28;20297;-63
2023/03/12 03:43:01;;;;;;;5.37;4.57;;;2.50;99.90;;;;;;5009263;28;20211;-64
2023/03/12 03:45:26;;;;;;;5.40;4.40;;;2.40;99.90;;;;;;5010002;28;20544;-63
2023/03/12 03:47:52;;;;;;;6.20;4.33;;;2.60;99.90;;;;;;5007683;28;20214;-64
2023/03/12 03:50:18;;;;;;;5.63;4.57;;;2.40;99.90;;;;;;5010113;28;20210;-64
2023/03/12 03:52:43;;;;;;;9.73;5.10;;;2.50;99.90;;;;;;5009417;28;20850;-63
2023/03/12 03:55:09;;;;;;;6.47;4.90;;;2.50;99.90;;;;;;5008556;28;20470;-63
2023/03/12 03:57:35;;;;;;;4.90;4.40;;;2.70;99.90;;;;;;5008905;28;20262;-64
2023/03/12 04:00:00;;;;;;;5.40;4.90;;;2.60;99.90;;;;;;5009086;28;20361;-64
2023/03/12 04:02:27;;;;;;;7.77;4.60;;;2.70;99.90;;;;;;5007611;28;20196;-64
2023/03/12 04:04:56;;;;;;;5.53;4.65;;;2.80;99.90;;;;;;5009551;28;20266;-64
2023/03/12 04:07:22;;;;;;;5.75;4.40;;;2.60;99.60;;;;;;5009244;28;20195;-64
2023/03/12 04:09:48;;;;;;;6.70;5.25;;;2.70;99.90;;;;;;5006453;28;20734;-64
2023/03/12 04:12:13;;;;;;;6.57;5.13;;;2.70;99.90;;;;;;5009571;28;20189;-64
2023/03/12 04:14:40;;;;;;;5.40;4.70;;;3.10;99.90;;;;;;5006108;28;20242;-64
2023/03/12 04:17:06;;;;;;;5.25;4.70;;;2.50;99.60;;;;;;5007700;28;20194;-63
2023/03/12 04:19:31;;;;;;;6.77;5.10;;;2.90;99.80;;;;;;5010541;28;20651;-64
2023/03/12 04:21:57;;;;;;;6.13;5.10;;;2.90;99.80;;;;;;5008829;28;20442;-64
2023/03/12 04:24:22;;;;;;;5.77;4.97;;;3.50;99.80;;;;;;5006046;28;20251;-64
2023/03/12 04:26:50;;;;;;;6.23;4.93;;;3.10;99.30;;;;;;5009376;28;20198;-64
2023/03/12 04:29:16;;;;;;;6.50;4.47;;;2.60;99.60;;;;;;5007220;28;20212;-63
2023/03/12 04:31:41;;;;;;;6.75;4.70;;;3.20;99.80;;;;;;5009436;28;20310;-64
2023/03/12 04:34:08;;;;;;;7.67;4.80;;;3.40;99.10;;;;;;5007471;28;20205;-64
2023/03/12 04:36:33;;;;;;;5.65;4.40;;;3.20;99.30;;;;;;5008658;28;20180;-64
2023/03/12 04:38:59;;;;;;;9.80;5.00;;;3.50;99.20;;;;;;5007753;28;20235;-63
2023/03/12 04:41:24;;;;;;;5.00;4.50;;;3.40;98.90;;;;;;5006251;28;20204;-64
2023/03/12 04:43:50;;;;;;;8.90;5.60;;;3.20;98.60;;;;;;5009302;28;20697;-64
2023/03/12 04:46:15;;;;;;;5.40;4.87;;;3.60;98.30;;;;;;5007194;28;20553;-64
2023/03/12 04:48:41;;;;;;;4.70;4.30;;;3.60;98.50;;;;;;5009021;28;20637;-64
2023/03/12 04:51:06;;;;;;;5.83;5.23;;;3.80;98.20;;;;;;5009132;28;20188;-64
2023/03/12 04:53:32;;;;;;;8.43;4.73;;;3.40;98.40;;;;;;5009086;28;20263;-64
2023/03/12 04:55:58;;;;;;;5.63;4.30;;;3.60;98.80;;;;;;5005970;28;20219;-64
2023/03/12 04:58:24;;;;;;;7.07;4.40;;;3.10;98.10;;;;;;5008839;28;20209;-64
2023/03/12 05:00:50;;;;;;;6.20;4.90;;;3.70;98.70;;;;;;5007920;28;20614;-64
2023/03/12 05:03:16;;;;;;;5.80;4.65;;;3.40;98.30;;;;;;5002945;28;20197;-64
2023/03/12 05:05:42;;;;;;;5.25;4.70;;;3.70;98.50;;;;;;5008648;28;20284;-64
2023/03/12 05:08:08;;;;;;;7.03;5.25;;;3.20;98.40;;;;;;5008415;28;20212;-64
2023/03/12 05:10:33;;;;;;;7.67;4.60;;;3.90;98.70;;;;;;5005281;28;20247;-64
2023/03/12 05:12:59;;;;;;;5.67;4.80;;;3.70;98.60;;;;;;5008873;28;20418;-64
2023/03/12 05:15:25;;;;;;;11.83;6.37;;;3.40;98.40;;;;;;5008416;28;20209;-63
2023/03/12 05:17:51;;;;;;;5.90;5.20;;;3.90;98.70;;;;;;5005489;28;20919;-64
2023/03/12 05:20:16;;;;;;;7.87;4.87;;;3.50;98.60;;;;;;5007712;28;20201;-64
2023/03/12 05:22:42;;;;;;;6.63;4.80;;;3.70;98.70;;;;;;5008842;28;20254;-64
2023/03/12 05:25:08;;;;;;;5.53;4.90;;;3.70;99.10;;;;;;5005518;28;20186;-64
2023/03/12 05:27:34;;;;;;;4.95;4.35;;;4.00;99.20;;;;;;5006599;28;20220;-64
2023/03/12 05:30:01;;;;;;;4.60;4.15;;;3.50;99.10;;;;;;5004893;28;20217;-64
2023/03/12 05:32:26;;;;;;;6.53;4.70;;;3.90;99.80;;;;;;5007882;28;20205;-63
2023/03/12 05:34:52;;;;;;;5.07;4.57;;;3.90;99.90;;;;;;5005421;28;20203;-64
2023/03/12 05:37:17;;;;;;;7.03;4.83;;;3.80;99.80;;;;;;5007962;28;20189;-64
2023/03/12 05:39:45;;;;;;;6.63;5.00;;;4.10;99.90;;;;;;5007552;28;20209;-64
2023/03/12 05:42:12;;;;;;;5.20;4.65;;;4.10;99.90;;;;;;5008184;28;20678;-64
2023/03/12 05:44:38;;;;;;;5.10;4.00;;;3.90;99.90;;;;;;5009192;28;20212;-64
2023/03/12 05:47:04;;;;;;;5.40;4.67;;;3.50;99.90;;;;;;5006810;28;20250;-64
2023/03/12 05:49:30;;;;;;;5.72;4.68;;;4.00;99.90;;;;;;5006914;28;20241;-64
2023/03/12 05:51:55;;;;;;;6.40;5.30;;;3.80;99.90;;;;;;5007882;28;20657;-64
2023/03/12 05:54:21;;;;;;;6.27;5.20;;;4.00;99.90;;;;;;5003705;28;20656;-64
2023/03/12 05:56:47;;;;;;;6.90;5.10;;;3.40;99.90;;;;;;5007374;28;20457;-64
2023/03/12 05:59:12;;;;;;;6.00;4.10;;;3.30;99.90;;;;;;5005994;28;20594;-64
2023/03/12 06:01:39;;;;;;;7.60;5.17;;;4.00;99.90;;;;;;5005435;28;20447;-63
2023/03/12 06:04:05;;;;;;;5.65;4.70;;;4.10;99.90;;;;;;5004892;28;20219;-64
2023/03/12 06:06:32;;;;;;;5.17;4.67;;;4.20;99.90;;;;;;5011231;28;20194;-63
2023/03/12 06:08:58;;;;;;;6.88;5.07;;;4.00;99.90;;;;;;5010042;28;20494;-64
2023/03/12 06:11:24;;;;;;;8.50;5.20;;;3.90;99.90;;;;;;5010457;28;20669;-64
2023/03/12 06:13:49;;;;;;;6.17;5.33;;;3.90;99.90;;;;;;5011861;28;20244;-64
2023/03/12 06:16:21;;;;;;;5.20;4.70;;;3.30;99.90;;;;;;5010767;28;20264;-64
2023/03/12 06:18:46;;;;;;;5.50;4.80;;;3.80;99.90;;;;;;5011304;28;20646;-64
2023/03/12 06:21:14;;;;;;;6.40;5.50;;;3.90;99.90;;;;;;5010384;28;20188;-64
2023/03/12 06:23:41;;;;;;;6.00;4.95;;;4.00;99.90;;;;;;5009083;28;20448;-64
2023/03/12 06:26:07;;;;;;;5.95;5.45;;;3.40;99.90;;;;;;5009143;28;20187;-64
2023/03/12 06:28:34;;;;;;;7.15;4.90;;;3.20;99.90;;;;;;5010896;28;20674;-64
2023/03/12 06:30:59;;;;;;;6.20;4.75;;;4.10;99.90;;;;;;5009745;28;20240;-63
2023/03/12 06:33:25;;;;;;;5.10;4.57;;;4.00;99.90;;;;;;5011193;28;20221;-64
2023/03/12 06:35:58;;;;;;;6.83;5.70;;;4.10;99.90;;;;;;5009803;28;20229;-64
2023/03/12 06:38:24;;;;;;;6.13;5.20;;;4.10;99.90;;;;;;5009509;28;20296;-64
2023/03/12 06:41:04;;;;;;;6.70;4.85;;;4.10;99.90;;;;;;5004818;28;20730;-64
2023/03/12 06:43:32;;;;;;;7.93;5.07;;;4.10;99.90;;;;;;5011059;28;20215;-64
2023/03/12 06:45:58;;;;;;;7.30;5.47;;;4.00;99.90;;;;;;5007307;28;20178;-64
2023/03/12 06:48:26;;;;;;;5.95;5.00;;;4.00;99.90;;;;;;5010746;28;20206;-64
2023/03/12 06:50:52;;;;;;;7.70;5.25;;;3.80;99.90;;;;;;5008149;28;20300;-64
2023/03/12 06:53:19;;;;;;;5.72;5.22;;;4.00;99.90;;;;;;5009157;28;20197;-64
2023/03/12 06:55:45;;;;;;;7.22;5.22;;;4.10;99.90;;;;;;5008824;28;20297;-65
2023/03/12 06:58:12;;;;;;;5.70;5.10;;;4.20;99.90;;;;;;5009984;28;20701;-64
2023/03/12 07:00:38;;;;;;;7.47;5.68;;;4.30;99.90;;;;;;5007409;28;20289;-64
2023/03/12 07:03:04;;;;;;;6.90;6.00;;;4.00;99.90;;;;;;5007517;28;20291;-63
2023/03/12 07:05:29;;;;;;;6.32;5.65;;;4.50;99.90;;;;;;5005853;28;20852;-64
2023/03/12 07:07:55;;;;;;;5.80;5.20;;;4.20;99.90;;;;;;5007160;28;20197;-64
2023/03/12 07:10:21;;;;;;;6.37;4.67;;;4.70;99.90;;;;;;5003348;28;20198;-64
2023/03/12 07:12:46;;;;;;;8.63;5.40;;;4.70;99.90;;;;;;5007691;28;20184;-64
2023/03/12 07:15:12;;;;;;;8.17;5.10;;;4.80;99.90;;;;;;5007587;28;20532;-64
2023/03/12 07:17:37;;;;;;;7.20;5.40;;;4.90;99.90;;;;;;5005802;28;20182;-64
2023/03/12 07:20:04;;;;;;;9.47;5.97;;;4.40;99.90;;;;;;5007372;28;20213;-64
2023/03/12 07:22:29;;;;;;;7.30;5.97;;;4.70;99.90;;;;;;5006812;28;20229;-64
2023/03/12 07:24:55;;;;;;;6.17;5.57;;;4.70;99.90;;;;;;5006161;28;20221;-64
2023/03/12 07:27:20;;;;;;;6.23;5.33;;;4.90;99.90;;;;;;5006272;28;20208;-64
2023/03/12 07:29:46;;;;;;;6.30;5.70;;;4.60;99.90;;;;;;5006924;28;20301;-64
2023/03/12 07:32:11;;;;;;;8.10;5.80;;;4.70;99.90;;;;;;5007339;28;20193;-63
2023/03/12 07:34:37;;;;;;;7.10;6.20;;;5.30;99.90;;;;;;5002912;28;20281;-64
2023/03/12 07:37:04;;;;;;;7.03;6.33;;;4.90;99.90;;;;;;5005024;28;20678;-64
2023/03/12 07:39:29;;;;;;;7.38;6.30;;;4.70;99.90;;;;;;5003405;28;20257;-62
2023/03/12 07:41:55;;;;;;;7.90;6.53;;;5.00;99.90;;;;;;5008873;28;20194;-63
2023/03/12 07:44:21;;;;;;;7.30;5.80;;;4.90;99.90;;;;;;5008345;28;20827;-63
2023/03/12 07:46:46;;;;;;;6.63;6.00;;;5.00;99.90;;;;;;5007726;28;20786;-63
2023/03/12 07:49:12;;;;;;;6.20;5.60;;;5.00;99.90;;;;;;5006026;28;20232;-64
2023/03/12 07:51:37;;;;;;;6.43;5.77;;;5.10;99.90;;;;;;5009435;28;20278;-63
2023/03/12 07:54:03;;;;;;;7.77;6.93;;;5.10;99.90;;;;;;5007033;28;20560;-63
2023/03/12 07:56:29;;;;;;;8.40;6.27;;;5.00;99.90;;;;;;5006275;28;20264;-65
2023/03/12 07:58:54;;;;;;;8.97;6.30;;;5.70;99.90;;;;;;5006799;28;20255;-63
2023/03/12 08:01:20;;;;;;;7.57;6.87;;;5.30;99.90;;;;;;5008040;28;20179;-64
2023/03/12 08:03:45;;;;;;;6.67;6.07;;;5.40;99.90;;;;;;5004440;28;20687;-63
2023/03/12 08:06:11;;;;;;;6.90;5.70;;;5.40;99.90;;;;;;5009473;28;20217;-64
2023/03/12 08:08:40;;;;;;;6.47;5.77;;;6.20;99.90;;;;;;5008821;28;20194;-63
2023/03/12 08:11:06;;;;;;;6.88;5.80;;;5.70;99.90;;;;;;5006529;28;20241;-63
2023/03/12 08:13:32;;;;;;;7.38;6.22;;;5.80;99.90;;;;;;5005534;28;20262;-63
2023/03/12 08:15:58;;;;;;;7.37;5.97;;;5.60;99.90;;;;;;5007765;28;20294;-64
2023/03/12 08:18:23;;;;;;;7.50;5.23;;;5.90;99.90;;;;;;5003743;28;20191;-68
2023/03/12 08:20:53;;;;;;;8.40;6.47;;;5.50;99.90;;;;;;5009798;28;20469;-66
2023/03/12 08:23:20;;;;;;;6.10;5.50;;;5.70;99.90;;;;;;5007118;28;20476;-66
2023/03/12 08:25:47;;;;;;;9.07;6.03;;;6.10;99.90;;;;;;5007356;28;20198;-66
2023/03/12 08:28:13;;;;;;;6.70;5.63;;;5.60;99.90;;;;;;5005881;28;20198;-66
2023/03/12 08:30:39;;;;;;;6.93;5.80;;;6.50;99.90;;;;;;5006456;28;20210;-66
2023/03/12 08:33:04;;;;;;;8.10;5.53;;;6.00;99.90;;;;;;5007794;28;20238;-67
2023/03/12 08:35:30;;;;;;;7.17;5.30;;;5.90;99.90;;;;;;5005707;28;20310;-67
2023/03/12 08:37:56;;;;;;;6.27;5.67;;;6.40;99.90;;;;;;5008148;28;20214;-67
2023/03/12 08:40:24;;;;;;;6.77;6.03;;;6.20;99.90;;;;;;5005730;28;20730;-69
2023/03/12 08:42:50;;;;;;;7.68;5.20;;;6.00;99.90;;;;;;5006311;28;20191;-67
2023/03/12 08:45:15;;;;;;;7.70;5.60;;;6.10;99.90;;;;;;5007392;28;20664;-65
2023/03/12 08:47:42;;;;;;;7.30;6.20;;;6.10;99.90;;;;;;5006318;28;20268;-70
2023/03/12 08:50:10;;;;;;;7.05;6.25;;;6.60;99.90;;;;;;5008136;28;21001;-70
2023/03/12 08:52:36;;;;;;;6.00;5.32;;;6.70;99.90;;;;;;5005890;28;20229;-67
2023/03/12 08:55:01;;;;;;;8.03;6.70;;;6.70;99.90;;;;;;5004767;28;20656;-66
2023/03/12 08:57:28;;;;;;;6.00;5.27;;;7.30;99.90;;;;;;5009086;28;20537;-67
2023/03/12 08:59:53;;;;;;;6.10;5.47;;;6.80;99.90;;;;;;5007103;28;20213;-66
2023/03/12 09:02:19;;;;;;;7.10;5.60;;;7.20;99.90;;;;;;5005778;28;20210;-68
2023/03/12 09:04:47;;;;;;;5.57;4.97;;;7.50;99.90;;;;;;5006881;28;20698;-66
2023/03/12 09:07:13;;;;;;;6.55;5.32;;;7.30;99.90;;;;;;5006256;28;20368;-67
2023/03/12 09:09:39;;;;;;;5.63;5.13;;;7.50;99.90;;;;;;5005970;28;20628;-68
2023/03/12 09:12:05;;;;;;;5.37;4.87;;;7.10;99.90;;;;;;5006487;28;20588;-66
2023/03/12 09:14:30;;;;;;;8.00;5.60;;;7.40;99.90;;;;;;5006844;28;20214;-67
2023/03/12 09:16:56;;;;;;;6.07;5.47;;;7.30;99.90;;;;;;5006532;28;20572;-66
2023/03/12 09:19:22;;;;;;;7.18;6.38;;;7.60;99.90;;;;;;5005731;28;20289;-65
2023/03/12 09:21:47;;;;;;;5.53;5.03;;;7.50;99.90;;;;;;5008789;28;20270;-66
2023/03/12 09:24:13;;;;;;;6.00;5.40;;;7.80;99.90;;;;;;5003138;28;20811;-66
2023/03/12 09:26:39;;;;;;;7.33;5.37;;;7.70;99.90;;;;;;5006390;28;21040;-64
2023/03/12 09:29:04;;;;;;;6.20;5.60;;;8.30;99.90;;;;;;5007519;28;20215;-65
2023/03/12 09:31:30;;;;;;;5.83;4.97;;;8.30;99.90;;;;;;5008828;28;20213;-65
2023/03/12 09:33:55;;;;;;;5.83;5.20;;;9.00;99.90;;;;;;5005322;28;20188;-65
2023/03/12 09:36:21;;;;;;;6.17;5.30;;;8.40;99.90;;;;;;5006692;28;20188;-68
2023/03/12 09:38:47;;;;;;;5.77;5.17;;;8.90;99.90;;;;;;5006209;28;20191;-67
2023/03/12 09:41:22;;;;;;;5.80;5.17;;;8.80;99.90;;;;;;5009487;28;20185;-68
2023/03/12 09:43:56;;;;;;;7.05;4.45;;;9.10;99.90;;;;;;5008320;28;20175;-64
2023/03/12 09:46:37;;;;;;;5.30;4.80;;;9.20;99.90;;;;;;5009887;28;20250;-67
2023/03/12 09:49:10;;;;;;;5.80;4.90;;;9.20;99.90;;;;;;5009982;28;20216;-69
2023/03/12 09:51:42;;;;;;;5.07;4.20;;;9.10;99.90;;;;;;5009927;28;20231;-69
2023/03/12 09:54:23;;;;;;;5.22;4.57;;;9.40;99.90;;;;;;5009744;28;20192;-69
2023/03/12 09:56:51;;;;;;;5.80;4.70;;;9.70;99.90;;;;;;5007447;28;20187;-70
2023/03/12 09:59:17;;;;;;;5.20;4.75;;;10.00;99.90;;;;;;5009556;28;20929;-69
2023/03/12 10:01:51;;;;;;;5.47;4.83;;;9.60;99.90;;;;;;5008440;28;20179;-70
2023/03/12 10:04:23;;;;;;;5.10;4.35;;;10.00;99.90;;;;;;5008148;28;20212;-69
2023/03/12 10:06:49;;;;;;;4.65;4.25;;;10.40;99.90;;;;;;5007487;28;20185;-69
2023/03/12 10:09:33;;;;;;;5.07;4.40;;;10.40;99.90;;;;;;5023525;28;20225;-68
2023/03/12 10:12:15;;;;;;;5.35;4.22;;;11.30;99.90;;;;;;5009429;28;20268;-70
2023/03/12 10:14:46;;;;;;;3.78;3.47;;;11.30;99.90;;;;;;5009121;28;20279;-71
2023/03/12 10:17:37;;;;;;;2.70;2.45;;;11.00;99.90;;;;;;5011765;28;20178;-70
2023/03/12 10:20:49;;;;;;;2.72;2.13;;;11.00;99.90;;;;;;5013421;28;20205;-70
2023/03/12 10:23:39;;;;;;;2.50;2.20;;;11.20;99.90;;;;;;5008950;28;20400;-68
2023/03/12 10:26:08;;;;;;;3.15;2.50;;;11.60;99.90;;;;;;5010298;28;20205;-67
2023/03/12 10:28:48;;;;;;;2.90;2.45;;;11.90;99.90;;;;;;5010975;28;20201;-70
2023/03/12 10:31:30;;;;;;;2.60;2.40;;;11.80;99.90;;;;;;5008260;28;20203;-67
2023/03/12 10:34:02;;;;;;;2.67;2.30;;;12.10;99.90;;;;;;5008170;28;20191;-64
2023/03/12 10:36:28;;;;;;;2.97;2.15;;;12.40;99.90;;;;;;5010677;28;20190;-64
2023/03/12 10:38:54;;;;;;;4.07;2.00;;;12.30;99.90;;;;;;5009513;28;20242;-68
2023/03/12 10:41:27;;;;;;;4.97;2.20;;;12.30;99.90;;;;;;5008565;28;20194;-67
2023/03/12 10:43:55;;;;;;;2.83;2.63;;;12.30;99.90;;;;;;5010698;28;20877;-68
2023/03/12 10:46:36;;;;;;;2.30;1.75;;;12.40;99.90;;;;;;5009143;28;20213;-69
2023/03/12 10:49:20;;;;;;;2.55;1.80;;;12.30;99.90;;;;;;5008234;28;20707;-66
2023/03/12 10:52:03;;;;;;;3.40;2.17;;;12.40;99.90;;;;;;5009570;28;20270;-67
2023/03/12 10:54:40;;;;;;;4.70;1.98;;;12.30;99.90;;;;;;5006334;28;20210;-65
2023/03/12 10:57:06;;;;;;;4.32;3.28;;;11.90;99.90;;;;;;5006308;28;20182;-66
2023/03/12 10:59:38;;;;;;;2.10;1.80;;;11.80;99.90;;;;;;5008115;28;20210;-66
2023/03/12 11:02:39;;;;;;;2.78;2.20;;;11.60;99.90;;;;;;5008202;28;20717;-66
2023/03/12 11:05:28;;;;;;;2.65;2.20;;;11.60;99.90;;;;;;5007743;28;22082;-66
2023/03/12 11:07:54;;;;;;;2.55;2.20;;;11.70;99.90;;;;;;5007284;28;20202;-66
2023/03/12 11:10:26;;;;;;;1.97;1.80;;;11.60;99.90;;;;;;5006934;28;20217;-66
2023/03/12 11:12:54;;;;;;;2.35;2.03;;;11.80;99.90;;;;;;5007089;28;20442;-66
2023/03/12 11:15:35;;;;;;;3.30;1.63;;;12.70;99.90;;;;;;5009566;28;20202;-66
2023/03/12 11:18:20;;;;;;;4.15;2.00;;;12.60;99.90;;;;;;5006310;28;20559;-66
2023/03/12 11:20:47;;;;;;;2.25;2.05;;;12.90;99.90;;;;;;5010166;28;20229;-66
2023/03/12 11:23:16;;;;;;;2.70;2.38;;;12.70;99.90;;;;;;5007378;28;20341;-67
2023/03/12 11:25:41;;;;;;;2.42;2.15;;;12.80;99.90;;;;;;5007903;28;20237;-66
2023/03/12 11:28:16;;;;;;;2.40;1.90;;;13.00;99.90;;;;;;5007949;28;20187;-66
2023/03/12 11:30:43;;;;;;;2.67;1.65;;;12.80;99.90;;;;;;5008203;28;20213;-66
2023/03/12 11:33:10;;;;;;;3.22;2.80;;;12.70;99.90;;;;;;5009895;28;20187;-73
2023/03/12 11:35:51;;;;;;;2.50;1.85;;;12.70;99.90;;;;;;5008460;28;20313;-72
2023/03/12 11:38:20;;;;;;;2.08;1.88;;;12.90;99.90;;;;;;5005600;28;20179;-72
2023/03/12 11:41:03;;;;;;;1.65;1.45;;;13.20;99.90;;;;;;5010216;28;20207;-72
2023/03/12 11:43:51;;;;;;;1.20;1.10;;;13.40;99.90;;;;;;5008147;28;20191;-73
2023/03/12 11:46:55;;;;;;;1.00;0.80;;;13.10;99.90;;;;;;5010135;28;20190;-72
2023/03/12 11:49:20;;;;;;;2.08;1.10;;;13.50;99.90;;;;;;5008729;28;20276;-73
2023/03/12 11:52:02;;;;;;;2.30;1.00;;;13.50;99.90;;;;;;5010275;28;20190;-72
2023/03/12 11:54:36;;;;;;;1.00;0.90;;;13.60;99.90;;;;;;5009923;28;20285;-72
2023/03/12 11:57:23;;;;;;;2.28;0.90;;;13.20;99.90;;;;;;5012314;28;20206;-72
2023/03/12 12:00:13;;;;;;;1.20;1.10;;;13.20;99.90;;;;;;5007080;28;20219;-73
2023/03/12 12:02:42;;;;;;;1.13;0.82;;;13.20;99.90;;;;;;5007390;28;20183;-72
2023/03/12 12:05:40;;;;;;;1.08;0.85;;;13.20;99.90;;;;;;5010414;28;20675;-72
2023/03/12 12:08:31;;;;;;;2.28;1.25;;;13.40;99.90;;;;;;5008128;28;20198;-72
2023/03/12 12:11:20;;;;;;;2.10;1.00;;;13.70;99.90;;;;;;5008009;28;20242;-72
2023/03/12 12:14:23;;;;;;;1.92;1.40;;;13.50;99.90;;;;;;5041623;28;20557;-72
2023/03/12 12:17:09;;;;;;;1.85;1.30;;;13.50;99.90;;;;;;5004714;28;21005;-72
2023/03/12 12:20:14;;;;;;;2.92;1.05;;;13.60;99.90;;;;;;5023429;28;20210;-71
2023/03/12 12:23:00;;;;;;;3.75;1.50;;;13.60;99.90;;;;;;5006642;28;20186;-72
2023/03/12 12:26:05;;;;;;;1.80;1.08;;;14.00;99.90;;;;;;5008309;28;20186;-73
2023/03/12 12:28:43;;;;;;;4.55;1.30;;;13.70;99.90;;;;;;4997332;28;20198;-72
2023/03/12 12:31:22;;;;;;;2.33;1.65;;;13.90;99.90;;;;;;5010777;28;20682;-72
2023/03/12 12:34:16;;;;;;;1.90;0.95;;;14.00;99.90;;;;;;5005713;28;20186;-68
2023/03/12 12:36:46;;;;;;;2.88;1.42;;;14.20;99.90;;;;;;5003875;28;20194;-67
2023/03/12 12:39:38;;;;;;;1.50;1.20;;;13.90;99.90;;;;;;5021478;28;20226;-67
2023/03/12 12:42:09;;;;;;;1.73;1.00;;;13.90;99.90;;;;;;5010671;28;20209;-68
2023/03/12 12:44:45;;;;;;;2.33;1.23;;;13.90;99.90;;;;;;5005483;28;20194;-68
2023/03/12 12:47:16;;;;;;;4.75;1.35;;;14.00;99.90;;;;;;5007878;28;20195;-67
2023/03/12 12:49:47;;;;;;;1.85;1.20;;;14.20;99.90;;;;;;5005429;28;20787;-68
2023/03/12 12:52:19;;;;;;;1.85;1.20;;;14.00;99.90;;;;;;5007708;28;20269;-67
2023/03/12 12:55:10;;;;;;;5.13;1.73;;;14.30;99.80;;;;;;5002557;28;20215;-67
2023/03/12 12:57:44;;;;;;;2.50;1.30;;;14.20;99.40;;;;;;5006319;28;20691;-68
2023/03/12 13:00:30;;;;;;;2.20;1.23;;;14.40;99.10;;;;;;5005808;28;20215;-67
2023/03/12 13:02:57;;;;;;;2.30;1.20;;;14.60;98.60;;;;;;5006558;28;20722;-67
2023/03/12 13:05:51;;;;;;;2.30;1.40;;;14.30;98.40;;;;;;5003941;28;20194;-67
2023/03/12 13:08:34;;;;;;;4.43;1.48;;;14.10;98.60;;;;;;5007921;28;20290;-67